Time;durP1;ratioP1;P1;durP2;ratioP2;P2;SDS_P1;SDS_P2;PMS_P1;PMS_P2;Temp;Humidity;BMP_temperature;BMP_pressure;BME280_temperature;BME280_humidity;BME280_pressure;Samples;Min_cycle;Max_cycle;Signal;HPM_P1;HPM_P2
2021/08/30 00:01:52;;;;;;;6.40;5.93;;;16.80;99.90;;;;;;10488274;28;20606;-82
2021/08/30 00:06:55;;;;;;;7.50;6.90;;;16.80;99.90;;;;;;10507142;28;20308;-81
2021/08/30 00:11:57;;;;;;;7.73;7.13;;;16.90;99.90;;;;;;10507339;28;20200;-82
2021/08/30 00:17:00;;;;;;;7.60;7.00;;;16.80;99.90;;;;;;10543442;28;20291;-82
2021/08/30 00:22:05;;;;;;;9.30;8.60;;;16.80;99.90;;;;;;10525015;28;20200;-82
2021/08/30 00:27:07;;;;;;;9.13;8.43;;;16.80;99.90;;;;;;10512609;28;20224;-82
2021/08/30 00:32:09;;;;;;;10.07;9.37;;;16.80;99.90;;;;;;10476221;28;20195;-82
2021/08/30 00:37:12;;;;;;;10.80;10.00;;;16.80;99.90;;;;;;10520773;28;20299;-81
2021/08/30 00:42:15;;;;;;;9.20;8.50;;;16.80;99.90;;;;;;10521509;28;20227;-82
2021/08/30 00:47:17;;;;;;;10.60;9.70;;;16.80;99.90;;;;;;10539667;28;20253;-82
2021/08/30 00:52:20;;;;;;;9.77;9.07;;;16.80;99.90;;;;;;10508765;28;20206;-81
2021/08/30 00:57:24;;;;;;;10.60;9.90;;;16.80;99.90;;;;;;10524827;28;20215;-82
2021/08/30 01:02:26;;;;;;;11.13;10.33;;;16.90;99.90;;;;;;10521694;28;20206;-82
2021/08/30 01:07:38;;;;;;;9.83;9.13;;;16.80;99.90;;;;;;10509253;28;20228;-82
2021/08/30 01:12:46;;;;;;;11.23;10.37;;;16.90;99.90;;;;;;10509991;28;20592;-82
2021/08/30 01:17:49;;;;;;;10.87;10.07;;;16.90;99.90;;;;;;10527766;28;20218;-82
2021/08/30 01:22:56;;;;;;;11.80;10.90;;;16.90;99.90;;;;;;10527488;28;21106;-82
2021/08/30 01:27:58;;;;;;;12.50;11.40;;;16.90;99.90;;;;;;10545673;28;20227;-82
2021/08/30 01:33:02;;;;;;;13.00;12.07;;;16.90;99.90;;;;;;10528011;28;20198;-82
2021/08/30 01:38:07;;;;;;;10.87;10.00;;;16.90;99.90;;;;;;10533559;28;20564;-81
2021/08/30 01:43:11;;;;;;;10.03;9.33;;;16.90;99.90;;;;;;10537769;28;20298;-82
2021/08/30 01:48:15;;;;;;;10.47;9.77;;;16.90;99.90;;;;;;10540102;28;20314;-82
2021/08/30 01:53:17;;;;;;;10.70;9.90;;;16.90;99.90;;;;;;10560275;28;20271;-82
2021/08/30 02:03:40;;;;;;;11.87;10.97;;;16.90;99.90;;;;;;10556470;28;20196;-83
2021/08/30 02:08:43;;;;;;;10.60;9.83;;;16.90;99.90;;;;;;10509682;28;20215;-81
2021/08/30 02:13:45;;;;;;;11.47;10.60;;;16.90;99.90;;;;;;10525444;28;20671;-82
2021/08/30 02:18:58;;;;;;;9.80;9.10;;;16.90;99.90;;;;;;10524385;28;20583;-82
2021/08/30 02:24:05;;;;;;;9.97;9.27;;;16.90;99.90;;;;;;10525462;28;20204;-81
2021/08/30 02:29:09;;;;;;;10.60;9.80;;;16.90;99.90;;;;;;10507805;28;20596;-82
2021/08/30 02:34:13;;;;;;;10.43;9.63;;;16.90;99.90;;;;;;10560305;28;20257;-82
2021/08/30 02:39:16;;;;;;;11.80;10.90;;;16.90;99.90;;;;;;10547434;28;20257;-81
2021/08/30 02:44:18;;;;;;;9.57;8.87;;;16.80;99.90;;;;;;10530597;28;20195;-81
2021/08/30 02:49:22;;;;;;;10.10;9.40;;;16.70;99.90;;;;;;10517858;28;20258;-81
2021/08/30 02:54:25;;;;;;;10.00;9.20;;;16.60;99.90;;;;;;10538021;28;20199;-82
2021/08/30 02:59:31;;;;;;;8.90;8.23;;;16.60;99.90;;;;;;10519292;28;20208;-82
2021/08/30 03:04:36;;;;;;;8.60;8.03;;;16.50;99.90;;;;;;10542169;28;20199;-82
2021/08/30 03:09:39;;;;;;;8.07;7.47;;;16.50;99.90;;;;;;10523907;28;20224;-81
2021/08/30 03:14:42;;;;;;;8.30;7.80;;;16.40;99.90;;;;;;10541792;28;20202;-81
2021/08/30 03:19:47;;;;;;;7.27;6.77;;;16.40;99.90;;;;;;10507024;28;20590;-82
2021/08/30 03:24:50;;;;;;;6.93;6.37;;;16.40;99.90;;;;;;10509569;28;20188;-82
2021/08/30 03:29:53;;;;;;;5.70;5.40;;;16.40;99.90;;;;;;10512678;28;20771;-81
2021/08/30 03:34:56;;;;;;;6.30;5.90;;;16.40;99.90;;;;;;10527809;28;20192;-82
2021/08/30 03:40:00;;;;;;;7.20;6.70;;;16.40;99.90;;;;;;10527184;28;20218;-82
2021/08/30 03:45:02;;;;;;;7.03;6.53;;;16.40;99.90;;;;;;10545437;28;20204;-82
2021/08/30 03:50:07;;;;;;;8.53;7.90;;;16.40;99.90;;;;;;10510331;28;20307;-82
2021/08/30 03:55:11;;;;;;;8.17;7.57;;;16.40;99.90;;;;;;10526975;28;20215;-81
2021/08/30 04:00:14;;;;;;;9.97;9.03;;;16.40;99.90;;;;;;10507173;28;20198;-81
2021/08/30 04:05:21;;;;;;;8.83;8.20;;;16.40;99.90;;;;;;10517041;28;20272;-82
2021/08/30 04:10:24;;;;;;;9.90;9.10;;;16.40;99.90;;;;;;10505094;28;20199;-82
2021/08/30 04:15:26;;;;;;;10.60;9.80;;;16.40;99.90;;;;;;10505268;28;20200;-82
2021/08/30 04:20:30;;;;;;;11.27;10.23;;;16.50;99.90;;;;;;10521997;28;20196;-82
2021/08/30 04:25:32;;;;;;;10.87;9.67;;;16.50;99.90;;;;;;10520426;28;20314;-81
2021/08/30 04:30:35;;;;;;;11.37;10.47;;;16.50;99.90;;;;;;10521120;28;20196;-82
2021/08/30 04:35:39;;;;;;;11.17;10.17;;;16.50;99.90;;;;;;10539055;28;20257;-81
2021/08/30 04:40:41;;;;;;;12.77;11.67;;;16.50;99.90;;;;;;10521083;28;20301;-83
2021/08/30 04:45:44;;;;;;;13.60;12.30;;;16.60;99.90;;;;;;10518322;28;20227;-82
2021/08/30 04:50:47;;;;;;;13.00;11.80;;;16.60;99.90;;;;;;10518572;28;20652;-82
2021/08/30 04:55:49;;;;;;;13.77;12.57;;;16.60;99.90;;;;;;10520820;28;20294;-82
2021/08/30 05:00:51;;;;;;;13.43;12.33;;;16.60;99.90;;;;;;10520632;28;20270;-82
2021/08/30 05:05:55;;;;;;;15.30;14.00;;;16.60;99.90;;;;;;10503282;28;20235;-82
2021/08/30 05:10:57;;;;;;;14.27;12.97;;;16.60;99.90;;;;;;10527433;28;20192;-81
2021/08/30 05:15:59;;;;;;;12.57;11.47;;;16.50;99.90;;;;;;10519067;28;20216;-82
2021/08/30 05:21:02;;;;;;;10.60;9.80;;;16.40;99.90;;;;;;10471191;28;20199;-82
2021/08/30 05:26:04;;;;;;;12.30;11.30;;;16.40;99.90;;;;;;10494361;28;20228;-82
2021/08/30 05:31:06;;;;;;;14.57;13.17;;;16.30;99.90;;;;;;10459711;28;20200;-81
2021/08/30 05:36:10;;;;;;;12.90;11.80;;;16.30;99.90;;;;;;10474394;28;20209;-81
2021/08/30 05:41:12;;;;;;;15.07;13.77;;;16.30;99.90;;;;;;10459823;28;20200;-82
2021/08/30 05:46:16;;;;;;;15.20;13.80;;;16.30;99.90;;;;;;10459615;28;20224;-82
2021/08/30 05:51:19;;;;;;;14.53;13.30;;;16.20;99.90;;;;;;10494468;28;20668;-82
2021/08/30 05:56:21;;;;;;;15.40;14.20;;;16.30;99.90;;;;;;10477006;28;20219;-82
2021/08/30 06:01:23;;;;;;;15.57;14.10;;;16.30;99.90;;;;;;10476268;28;20199;-82
2021/08/30 06:06:27;;;;;;;15.23;13.93;;;16.30;99.90;;;;;;10477661;28;20240;-82
2021/08/30 06:11:29;;;;;;;16.30;14.90;;;16.30;99.90;;;;;;10497331;28;20185;-82
2021/08/30 06:16:31;;;;;;;14.97;13.63;;;16.30;99.90;;;;;;10479148;28;20243;-82
2021/08/30 06:21:35;;;;;;;17.20;15.60;;;16.40;99.90;;;;;;10463872;28;20204;-82
2021/08/30 06:26:37;;;;;;;17.27;15.77;;;16.50;99.90;;;;;;10505337;28;20223;-82
2021/08/30 06:31:39;;;;;;;16.60;15.17;;;16.60;99.90;;;;;;10506269;28;20197;-82
2021/08/30 06:36:43;;;;;;;15.37;13.97;;;16.60;99.90;;;;;;10489255;28;20590;-82
2021/08/30 06:41:45;;;;;;;16.50;14.90;;;16.80;99.90;;;;;;10492004;28;20196;-83
2021/08/30 06:46:47;;;;;;;15.17;13.70;;;16.90;99.90;;;;;;10491210;28;20228;-82
2021/08/30 06:51:50;;;;;;;14.00;12.90;;;17.00;99.90;;;;;;10490527;28;20202;-83
2021/08/30 06:56:52;;;;;;;15.27;13.97;;;17.00;99.90;;;;;;10490846;28;20216;-82
2021/08/30 07:01:54;;;;;;;16.17;14.77;;;17.10;99.90;;;;;;10491491;28;20193;-82
2021/08/30 07:06:58;;;;;;;15.80;14.37;;;17.10;99.90;;;;;;10491748;28;20307;-83
2021/08/30 07:12:00;;;;;;;14.97;13.67;;;17.20;99.90;;;;;;10491118;28;20263;-82
2021/08/30 07:17:02;;;;;;;13.90;12.70;;;17.10;99.90;;;;;;10497685;28;20208;-82
2021/08/30 07:22:06;;;;;;;15.20;13.80;;;17.20;99.90;;;;;;10475234;28;20334;-82
2021/08/30 07:27:08;;;;;;;14.80;13.70;;;17.30;99.90;;;;;;10490352;28;20208;-82
2021/08/30 07:32:10;;;;;;;13.67;12.57;;;17.30;99.90;;;;;;10490324;28;20189;-83
2021/08/30 07:37:14;;;;;;;14.43;13.23;;;17.30;99.90;;;;;;10489861;28;20228;-82
2021/08/30 07:42:16;;;;;;;14.37;13.23;;;17.30;99.90;;;;;;10484344;28;20192;-82
2021/08/30 07:47:18;;;;;;;13.60;12.40;;;17.40;99.90;;;;;;10483007;28;20208;-82
2021/08/30 07:52:22;;;;;;;13.03;11.93;;;17.40;99.90;;;;;;10483555;28;20203;-82
2021/08/30 07:57:24;;;;;;;14.00;12.70;;;17.50;99.90;;;;;;10483552;28;20217;-82
2021/08/30 08:02:26;;;;;;;13.40;12.30;;;17.50;99.90;;;;;;10502456;28;20196;-82
2021/08/30 08:07:30;;;;;;;12.57;11.57;;;17.50;99.90;;;;;;10505465;28;20226;-82
2021/08/30 08:12:32;;;;;;;12.37;11.37;;;17.50;99.90;;;;;;10478575;28;20200;-81
2021/08/30 08:17:35;;;;;;;12.10;11.10;;;17.50;99.90;;;;;;10496318;28;20300;-82
2021/08/30 08:22:38;;;;;;;12.77;11.67;;;17.50;99.90;;;;;;10482890;28;20244;-82
2021/08/30 08:27:41;;;;;;;11.83;10.93;;;17.50;99.90;;;;;;10482674;28;20649;-82
2021/08/30 08:32:43;;;;;;;12.20;11.20;;;17.50;99.90;;;;;;10489693;28;20203;-82
2021/08/30 08:37:46;;;;;;;11.93;10.83;;;17.50;99.90;;;;;;10485653;28;20252;-82
2021/08/30 08:42:49;;;;;;;11.00;10.00;;;17.50;99.90;;;;;;10507571;28;20200;-82
2021/08/30 08:47:51;;;;;;;12.30;9.90;;;17.40;99.90;;;;;;10493768;28;20220;-81
2021/08/30 08:52:54;;;;;;;10.50;9.70;;;17.40;99.90;;;;;;10495535;28;20200;-81
2021/08/30 08:57:56;;;;;;;10.33;9.53;;;17.40;99.90;;;;;;10506166;28;20247;-82
2021/08/30 09:02:58;;;;;;;10.90;9.90;;;17.40;99.90;;;;;;10507531;28;20635;-82
2021/08/30 09:08:05;;;;;;;10.80;9.90;;;17.40;99.90;;;;;;10490241;28;20224;-82
2021/08/30 09:13:08;;;;;;;10.90;10.07;;;17.50;99.90;;;;;;10510119;28;20286;-83
2021/08/30 09:18:11;;;;;;;12.93;11.63;;;17.90;99.90;;;;;;10497025;28;20670;-82
2021/08/30 09:23:16;;;;;;;11.37;10.47;;;18.30;99.90;;;;;;10495559;28;20201;-82
2021/08/30 09:28:29;;;;;;;12.57;11.37;;;18.40;99.90;;;;;;10502372;28;20212;-82
2021/08/30 09:33:31;;;;;;;12.03;10.90;;;18.50;99.90;;;;;;10502779;28;20222;-82
2021/08/30 09:38:38;;;;;;;14.60;10.13;;;18.60;99.90;;;;;;10524109;28;20224;-82
2021/08/30 09:43:40;;;;;;;12.40;11.20;;;18.60;99.90;;;;;;10525187;28;20620;-82
2021/08/30 09:48:44;;;;;;;13.10;11.83;;;18.60;99.90;;;;;;10542777;28;20218;-82
2021/08/30 09:53:47;;;;;;;16.17;14.87;;;18.50;99.90;;;;;;10522162;28;20332;-83
2021/08/30 09:58:51;;;;;;;15.87;14.57;;;18.30;99.90;;;;;;10542871;28;20216;-82
2021/08/30 10:03:53;;;;;;;16.30;14.90;;;18.10;99.90;;;;;;10512386;28;20735;-82
2021/08/30 10:08:58;;;;;;;18.93;15.67;;;17.90;99.90;;;;;;10510357;28;20215;-82
2021/08/30 10:14:00;;;;;;;20.80;19.07;;;17.80;99.90;;;;;;10527183;28;20188;-82
2021/08/30 10:19:02;;;;;;;19.10;17.57;;;17.70;99.90;;;;;;10512252;28;20277;-83
2021/08/30 10:24:13;;;;;;;19.53;17.90;;;17.50;99.90;;;;;;10544443;28;20255;-84
2021/08/30 10:29:17;;;;;;;19.00;17.30;;;17.50;99.90;;;;;;10548349;28;20208;-83
2021/08/30 10:34:27;;;;;;;22.23;20.33;;;17.40;99.90;;;;;;10548465;28;20188;-83
2021/08/30 10:39:39;;;;;;;19.70;18.00;;;17.40;99.90;;;;;;10514565;28;20294;-83
2021/08/30 10:44:50;;;;;;;21.73;19.97;;;17.30;99.90;;;;;;10515751;28;20199;-83
2021/08/30 10:49:54;;;;;;;22.27;20.37;;;17.20;99.90;;;;;;10516166;28;20638;-83
2021/08/30 10:54:59;;;;;;;22.10;20.20;;;17.20;99.90;;;;;;10550148;28;20198;-83
2021/08/30 11:00:02;;;;;;;19.13;17.53;;;17.30;99.90;;;;;;10515919;28;20680;-83
2021/08/30 11:05:04;;;;;;;22.23;20.30;;;17.30;99.90;;;;;;10532612;28;20192;-84
2021/08/30 11:10:09;;;;;;;20.93;19.03;;;17.30;99.90;;;;;;10515841;28;20220;-84
2021/08/30 11:15:11;;;;;;;19.83;18.03;;;17.40;99.90;;;;;;10516062;28;20590;-84
2021/08/30 11:20:17;;;;;;;20.03;18.00;;;17.60;99.90;;;;;;10534180;28;20636;-84
2021/08/30 11:25:21;;;;;;;17.97;16.13;;;17.90;99.90;;;;;;10550271;28;20187;-84
2021/08/30 11:30:23;;;;;;;16.03;14.60;;;18.00;99.90;;;;;;10520846;28;20318;-83
2021/08/30 11:35:26;;;;;;;14.93;13.80;;;18.10;99.90;;;;;;10526866;28;20223;-83
2021/08/30 11:40:30;;;;;;;14.23;13.20;;;18.40;99.90;;;;;;10520995;28;20299;-83
2021/08/30 11:45:32;;;;;;;14.80;13.57;;;18.50;99.90;;;;;;10520842;28;20219;-83
2021/08/30 11:50:34;;;;;;;14.70;13.50;;;18.50;99.90;;;;;;10511698;28;20188;-83
2021/08/30 11:55:39;;;;;;;15.50;14.20;;;18.40;99.90;;;;;;10506713;28;20208;-83
2021/08/30 12:00:41;;;;;;;16.87;15.17;;;18.40;99.90;;;;;;10542148;28;20298;-83
2021/08/30 14:32:52;;;;;;;11.60;10.70;;;18.20;99.90;;;;;;10389408;28;20632;-83
2021/08/30 14:38:14;;;;;;;12.07;11.00;;;18.20;99.90;;;;;;10388351;28;20241;-83
2021/08/30 14:43:16;;;;;;;11.57;10.73;;;18.40;99.90;;;;;;10402910;28;20201;-83
2021/08/30 14:48:24;;;;;;;10.90;10.10;;;18.50;99.90;;;;;;10385139;28;20276;-84
2021/08/30 14:53:31;;;;;;;12.90;11.80;;;18.60;99.90;;;;;;10418672;28;20198;-82
2021/08/30 14:58:35;;;;;;;11.13;10.33;;;18.70;99.90;;;;;;10402080;28;20222;-82
2021/08/30 15:03:40;;;;;;;11.27;10.37;;;18.80;99.90;;;;;;10400935;28;20252;-82
2021/08/30 15:08:42;;;;;;;13.10;11.80;;;18.90;99.90;;;;;;10401167;28;20225;-83
2021/08/30 15:13:45;;;;;;;12.90;11.80;;;18.90;99.90;;;;;;10386645;28;20197;-83
2021/08/30 15:18:48;;;;;;;12.90;11.90;;;18.70;99.90;;;;;;10404471;28;20236;-83
2021/08/30 15:23:50;;;;;;;14.60;13.30;;;18.50;99.90;;;;;;10405715;28;20194;-83
2021/08/30 15:29:01;;;;;;;12.00;11.07;;;18.40;99.90;;;;;;10405849;28;20233;-85
2021/08/30 15:34:05;;;;;;;13.47;12.43;;;18.30;99.90;;;;;;10402804;28;20202;-82
2021/08/30 15:39:07;;;;;;;12.73;11.67;;;18.30;99.90;;;;;;10400832;28;20715;-84
2021/08/30 15:44:10;;;;;;;13.50;12.50;;;18.20;99.90;;;;;;10400637;28;20680;-83
2021/08/30 15:49:13;;;;;;;16.13;14.73;;;18.20;99.90;;;;;;10382546;28;20302;-83
2021/08/30 15:54:18;;;;;;;15.57;14.27;;;18.20;99.90;;;;;;10398542;28;20280;-84
2021/08/30 16:04:37;;;;;;;11.50;10.60;;;18.20;99.90;;;;;;10381121;28;20202;-85
2021/08/30 16:09:40;;;;;;;14.13;12.93;;;18.20;99.90;;;;;;10381924;28;20563;-83
2021/08/30 16:14:43;;;;;;;14.67;13.47;;;18.30;99.90;;;;;;10381336;28;20204;-83
2021/08/30 16:19:48;;;;;;;13.70;12.60;;;18.30;99.90;;;;;;10376361;28;20238;-85
2021/08/30 16:24:50;;;;;;;16.33;15.00;;;18.30;99.90;;;;;;10397817;28;20194;-83
2021/08/30 16:29:52;;;;;;;16.67;15.20;;;18.30;99.90;;;;;;10380014;28;20607;-84
2021/08/30 16:34:59;;;;;;;16.80;15.37;;;18.40;99.90;;;;;;10425560;28;20259;-84
2021/08/30 16:40:03;;;;;;;15.57;14.27;;;18.40;99.90;;;;;;10441883;28;20247;-84
2021/08/30 16:45:08;;;;;;;16.63;15.20;;;18.30;99.90;;;;;;10428058;28;20197;-84
2021/08/30 16:50:12;;;;;;;17.47;16.00;;;18.40;99.90;;;;;;10460112;28;20224;-85
2021/08/30 16:55:16;;;;;;;16.67;15.07;;;18.40;99.90;;;;;;10459491;28;20203;-84
2021/08/30 17:00:20;;;;;;;18.50;16.80;;;18.40;99.90;;;;;;10443055;28;20957;-84
2021/08/30 17:05:25;;;;;;;16.17;14.87;;;18.40;99.90;;;;;;10444556;28;20553;-85
2021/08/30 17:10:27;;;;;;;15.50;14.20;;;18.40;99.90;;;;;;10440708;28;20572;-84
2021/08/30 17:15:35;;;;;;;15.33;14.13;;;18.30;99.90;;;;;;10425611;28;20281;-85
2021/08/30 17:26:58;;;;;;;14.40;13.20;;;18.20;99.90;;;;;;10447821;28;20644;-85
2021/08/30 17:32:22;;;;;;;15.57;14.27;;;18.20;99.90;;;;;;10440260;28;20327;-84
2021/08/30 17:38:30;;;;;;;14.87;13.60;;;18.10;99.90;;;;;;10457126;28;20221;-83
2021/08/30 17:43:50;;;;;;;16.50;15.10;;;18.00;99.90;;;;;;10457023;28;20193;-84
2021/08/30 17:48:53;;;;;;;14.63;13.40;;;18.00;99.90;;;;;;10422203;28;20237;-85
2021/08/30 17:53:56;;;;;;;13.57;12.37;;;18.00;99.90;;;;;;10437616;28;20209;-83
2021/08/30 17:58:58;;;;;;;14.90;13.50;;;17.90;99.90;;;;;;10422839;28;20244;-84
2021/08/30 18:04:01;;;;;;;13.30;12.10;;;17.90;99.90;;;;;;10438099;28;20207;-83
2021/08/30 18:09:04;;;;;;;13.20;12.10;;;17.90;99.90;;;;;;10375831;22;20318;-81
2021/08/30 18:14:06;;;;;;;13.17;12.07;;;17.90;99.90;;;;;;10414509;28;20589;-80
2021/08/30 18:19:10;;;;;;;13.20;11.90;;;17.90;99.90;;;;;;10374564;28;20222;-81
2021/08/30 18:24:13;;;;;;;13.47;12.37;;;17.80;99.90;;;;;;10447008;28;20199;-81
2021/08/30 18:29:16;;;;;;;14.00;12.20;;;17.80;99.90;;;;;;10507394;28;20212;-81
2021/08/30 18:34:18;;;;;;;16.13;14.63;;;17.80;99.90;;;;;;10402312;28;20676;-82
2021/08/30 18:39:22;;;;;;;14.57;13.27;;;17.80;99.90;;;;;;10305099;28;20216;-81
2021/08/30 18:44:24;;;;;;;16.00;14.67;;;17.80;99.90;;;;;;10337547;28;20267;-81
2021/08/30 18:49:26;;;;;;;16.00;14.33;;;17.70;99.90;;;;;;10401643;28;20567;-81
2021/08/30 18:54:30;;;;;;;18.23;14.43;;;17.70;99.90;;;;;;10518422;28;20200;-81
2021/08/30 18:59:32;;;;;;;16.53;14.83;;;17.70;99.90;;;;;;10495744;28;20220;-83
2021/08/30 19:04:34;;;;;;;15.50;14.10;;;17.70;99.90;;;;;;10504697;28;20185;-84
2021/08/30 19:09:38;;;;;;;15.07;13.73;;;17.70;99.90;;;;;;10488609;28;20236;-84
2021/08/30 19:14:40;;;;;;;15.90;14.50;;;17.70;99.90;;;;;;10513453;28;20201;-84
2021/08/30 19:20:04;;;;;;;15.47;14.03;;;17.70;99.90;;;;;;10488618;28;20286;-84
2021/08/30 19:25:30;;;;;;;17.97;14.83;;;17.70;99.90;;;;;;10344195;28;20206;-84
2021/08/30 19:30:40;;;;;;;16.67;15.03;;;17.70;99.90;;;;;;10396154;28;20313;-84
2021/08/30 19:35:44;;;;;;;12.87;11.80;;;17.70;99.90;;;;;;10393915;28;20211;-84
2021/08/30 19:40:49;;;;;;;16.47;14.87;;;17.70;99.90;;;;;;10383538;28;20228;-84
2021/08/30 19:45:53;;;;;;;17.20;15.60;;;17.70;99.90;;;;;;10359199;28;20203;-85
2021/08/30 19:50:57;;;;;;;16.23;14.80;;;17.70;99.90;;;;;;10282815;28;20208;-84
2021/08/30 19:56:23;;;;;;;17.07;15.47;;;17.70;99.90;;;;;;10350157;28;20209;-84
2021/08/30 20:01:26;;;;;;;17.57;15.93;;;17.70;99.90;;;;;;10295500;28;20227;-84
2021/08/30 20:06:35;;;;;;;19.57;17.77;;;17.70;99.90;;;;;;10335104;28;20658;-84
2021/08/30 20:11:45;;;;;;;19.73;17.80;;;17.70;99.90;;;;;;10344600;28;20200;-85
2021/08/30 20:16:51;;;;;;;19.30;17.47;;;17.70;99.90;;;;;;10351310;28;20314;-85
2021/08/30 20:21:55;;;;;;;19.67;17.67;;;17.70;99.90;;;;;;10334871;28;20228;-85
2021/08/30 20:26:58;;;;;;;20.47;18.47;;;17.70;99.90;;;;;;10277289;28;20247;-85
2021/08/30 20:32:00;;;;;;;21.90;19.80;;;17.70;99.90;;;;;;10330009;28;20248;-85
2021/08/30 20:37:04;;;;;;;24.50;20.30;;;17.70;99.90;;;;;;10304253;28;20226;-85
2021/08/30 20:42:09;;;;;;;23.17;20.80;;;17.70;99.90;;;;;;10289490;28;20227;-85
2021/08/30 20:47:11;;;;;;;21.83;19.63;;;17.70;99.90;;;;;;10301112;28;20230;-85
2021/08/30 20:52:13;;;;;;;22.07;19.97;;;17.70;99.90;;;;;;10389981;28;20200;-84
2021/08/30 20:57:17;;;;;;;20.97;18.67;;;17.70;99.90;;;;;;10362183;28;20223;-84
2021/08/30 21:02:19;;;;;;;21.20;19.20;;;17.60;99.90;;;;;;10318573;28;20219;-84
2021/08/30 21:07:21;;;;;;;21.53;19.40;;;17.60;99.90;;;;;;10406261;28;20598;-84
2021/08/30 21:12:25;;;;;;;19.67;17.77;;;17.60;99.90;;;;;;10352149;28;20587;-81
2021/08/30 21:17:27;;;;;;;20.00;18.13;;;17.60;99.90;;;;;;10443009;28;20217;-82
2021/08/30 21:22:29;;;;;;;18.80;16.80;;;17.60;99.90;;;;;;10390601;28;20216;-81
2021/08/30 21:27:33;;;;;;;19.30;17.43;;;17.60;99.90;;;;;;10314517;28;20904;-84
2021/08/30 21:32:35;;;;;;;18.80;16.93;;;17.50;99.90;;;;;;10439743;28;20211;-84
2021/08/30 21:37:38;;;;;;;17.63;16.03;;;17.50;99.90;;;;;;10371718;28;20219;-84
2021/08/30 21:42:43;;;;;;;18.80;17.10;;;17.50;99.90;;;;;;10351796;28;20246;-84
2021/08/30 21:47:45;;;;;;;17.67;16.00;;;17.50;99.90;;;;;;10432259;28;20212;-84
2021/08/30 21:52:47;;;;;;;18.27;16.53;;;17.50;99.90;;;;;;10484929;28;20216;-84
2021/08/30 21:57:51;;;;;;;17.37;15.57;;;17.50;99.90;;;;;;10492972;28;20268;-84
2021/08/30 22:02:53;;;;;;;18.37;16.70;;;17.50;99.90;;;;;;10508580;28;20224;-84
2021/08/30 22:07:55;;;;;;;16.63;15.00;;;17.50;99.90;;;;;;10491589;28;20710;-84
2021/08/30 22:12:58;;;;;;;18.33;16.60;;;17.50;99.90;;;;;;10492957;28;20274;-84
2021/08/30 22:18:00;;;;;;;16.90;15.20;;;17.50;99.90;;;;;;10492268;28;20647;-84
2021/08/30 22:23:02;;;;;;;16.87;14.90;;;17.50;99.90;;;;;;10509392;28;20189;-84
2021/08/30 22:28:06;;;;;;;17.57;15.77;;;17.50;99.90;;;;;;10509256;28;20232;-84
2021/08/30 22:33:08;;;;;;;18.90;17.10;;;17.50;99.90;;;;;;10492728;28;20218;-84
2021/08/30 22:38:10;;;;;;;17.73;15.97;;;17.50;99.90;;;;;;10497732;28;20212;-84
2021/08/30 22:43:14;;;;;;;17.83;16.10;;;17.40;99.90;;;;;;10509442;28;20203;-84
2021/08/30 22:48:16;;;;;;;19.10;17.37;;;17.40;99.90;;;;;;10492484;28;20274;-84
2021/08/30 22:53:18;;;;;;;20.00;18.10;;;17.40;99.90;;;;;;10511949;28;20306;-84
2021/08/30 22:58:21;;;;;;;18.90;16.93;;;17.40;99.90;;;;;;10489992;28;20219;-84
2021/08/30 23:03:23;;;;;;;19.50;17.60;;;17.40;99.90;;;;;;10489167;28;20197;-84
2021/08/30 23:08:26;;;;;;;18.93;17.23;;;17.40;99.90;;;;;;10432958;28;20216;-84
2021/08/30 23:13:29;;;;;;;17.60;15.90;;;17.40;99.90;;;;;;10407536;28;20223;-84
2021/08/30 23:18:31;;;;;;;15.90;14.60;;;17.40;99.90;;;;;;10419259;28;20216;-84
2021/08/30 23:23:33;;;;;;;17.10;15.50;;;17.40;99.90;;;;;;10382005;28;20208;-84
2021/08/30 23:28:37;;;;;;;16.17;14.57;;;17.40;99.90;;;;;;10426284;28;20204;-84
2021/08/30 23:33:40;;;;;;;16.00;14.60;;;17.40;99.90;;;;;;10249563;29;20640;-84
2021/08/30 23:38:42;;;;;;;15.67;14.27;;;17.40;99.90;;;;;;10317926;28;20296;-84
2021/08/30 23:43:45;;;;;;;17.03;13.90;;;17.40;99.90;;;;;;10317499;28;20287;-84
2021/08/30 23:48:47;;;;;;;16.03;14.50;;;17.40;99.90;;;;;;10251971;28;20586;-84
2021/08/30 23:53:49;;;;;;;16.60;15.17;;;17.40;99.90;;;;;;10335672;28;20203;-84
2021/08/30 23:58:53;;;;;;;21.47;14.27;;;17.40;99.90;;;;;;10318906;28;20217;-84
